Pagrindinis puslapis
METAR-TAF:

METAR-TAF

Oro uostai :

Nuakšotas, Mauritanija

platuma: 18-18-36N, ilguma: 015-58-11W, Aukštis: 3 m

Dabartinis oras

Ataskaita buvo paskelbta 45 minutes, ne 16:00 UTC
Vėjas 10 kt iš Vakarų/Šiaurės Vakarų
Temperatūra 33°C
Drėgmė 56%
Slėgis 1009 hPa
Matomumas: 6000 m

METAR: GQNO 201600Z 30010KT 6000 NSC 33/23 Q1009 NOSIG

Laikas: 16:45 (16:45 UTC)

Prognozė

Ataskaita buvo paskelbta 5 valandos ir 45 minutes, ne 11:00 UTC
Prognozė galioja nuo 20 metu 12 UTC su 21 metu 18 UTC
Vėjas 10 kt iš Pietvakarių
Matomumas: 6000 m
Tapsmas
nuo 20 metu 17 UTC su 20 metu 20 UTC
Vėjas 12 kt iš Vakarų/Šiaurės Vakarų

TAF: GQNO 201100Z 2012/2118 22010KT 6000 NSC BECMG 2017/2020 30012KT

Orai ataskaitas ir orų prognozės (METAR, TAF).

turimą stotys yra geltonos ir raudonos taškus žemėlapyje.

Perkelti pele per norėdami pamatyti stoties vardą.

Tada spustelėkite, norėdami matyti oro stebėjimo ir prognozės.

Norėdami pakeisti žemėlapį: spustelėkite ant žalios mygtukų su juodo kryžiaus žemyn,; žalią mygtuką su brūkšneliu, jei norite nutolinti; arba žalių rodyklių gretimoms žemėlapius.


METAR-TAF: